createdAt,value
2017-08-21T00:00:41.875Z,13.48
2017-08-21T00:01:41.920Z,13.5
2017-08-21T00:02:41.646Z,13.51
2017-08-21T00:03:41.961Z,13.47
2017-08-21T00:04:42.007Z,13.29
2017-08-21T00:05:42.039Z,13.31
2017-08-21T00:06:42.069Z,13.39
2017-08-21T00:07:42.103Z,13.29
2017-08-21T00:08:42.129Z,13.31
2017-08-21T00:09:42.154Z,13.31
2017-08-21T00:10:42.206Z,13.37
2017-08-21T00:11:42.217Z,13.37
2017-08-21T00:12:42.257Z,13.31
2017-08-21T00:13:42.004Z,13.47
2017-08-21T00:14:42.670Z,13.42
2017-08-21T00:15:42.683Z,13.5
2017-08-21T00:16:42.714Z,13.42
2017-08-21T00:17:42.769Z,13.44
2017-08-21T00:18:42.793Z,13.42
2017-08-21T00:19:42.815Z,13.5
2017-08-21T00:20:42.575Z,13.45
2017-08-21T00:21:42.597Z,13.48
2017-08-21T00:22:42.641Z,13.42
2017-08-21T00:23:43.298Z,13.44
2017-08-21T00:24:43.000Z,13.42
2017-08-21T00:25:43.362Z,13.45
2017-08-21T00:26:43.407Z,13.37
2017-08-21T00:27:43.425Z,13.37
2017-08-21T00:28:42.838Z,13.31
2017-08-21T00:29:43.500Z,13.31
2017-08-21T00:30:43.234Z,13.39
2017-08-21T00:31:43.577Z,13.27
2017-08-21T00:32:43.597Z,13.25
2017-08-21T00:34:41.067Z,13.35
2017-08-21T00:35:15.397Z,13.32
2017-08-21T00:36:15.759Z,13.31
2017-08-21T00:37:15.795Z,13.32
2017-08-21T00:38:15.829Z,13.45
2017-08-21T00:39:15.865Z,13.5
2017-08-21T00:40:15.950Z,13.48
2017-08-21T00:41:15.944Z,13.51
2017-08-21T00:42:15.983Z,13.5
2017-08-21T00:43:15.989Z,13.47
2017-08-21T00:44:16.016Z,13.47
2017-08-21T00:45:15.751Z,13.42
2017-08-21T00:46:16.098Z,13.53
2017-08-21T00:47:16.116Z,13.51
2017-08-21T00:48:16.154Z,13.47
2017-08-21T00:49:16.211Z,13.47
2017-08-21T00:50:16.210Z,13.42
2017-08-21T00:51:15.945Z,13.48
2017-08-21T00:52:15.964Z,13.48
2017-08-21T00:53:16.339Z,13.47
2017-08-21T00:54:16.379Z,13.5
2017-08-21T00:55:16.096Z,13.53
2017-08-21T00:56:15.816Z,13.58
2017-08-21T00:57:16.462Z,13.63
2017-08-21T00:58:17.152Z,13.57
2017-08-21T00:59:17.179Z,13.6
2017-08-21T01:00:16.888Z,13.57
2017-08-21T01:01:17.649Z,13.6
2017-08-21T01:02:17.286Z,13.57
2017-08-21T01:03:17.639Z,13.72
2017-08-21T01:04:17.341Z,13.63
2017-08-21T01:05:17.680Z,13.62
2017-08-21T01:06:18.017Z,13.62
2017-08-21T01:07:18.052Z,13.54
2017-08-21T01:08:18.417Z,13.53
2017-08-21T01:09:18.451Z,13.53
2017-08-21T01:10:18.182Z,13.47
2017-08-21T01:11:18.509Z,13.45
2017-08-21T01:12:17.918Z,13.51
2017-08-21T01:13:18.574Z,13.36
2017-08-21T01:14:18.619Z,13.36
2017-08-21T01:15:18.635Z,13.36
2017-08-21T01:16:18.697Z,13.37
2017-08-21T01:17:18.710Z,13.31
2017-08-21T01:18:18.747Z,13.4
2017-08-21T01:19:18.826Z,13.29
2017-08-21T01:20:18.819Z,13.45
2017-08-21T01:21:18.210Z,13.48
2017-08-21T01:22:19.176Z,13.44
2017-08-21T01:23:19.209Z,13.4
2017-08-21T01:24:18.904Z,13.44
2017-08-21T01:25:19.268Z,13.35
2017-08-21T01:26:18.987Z,13.37
2017-08-21T01:27:19.341Z,13.28
2017-08-21T01:28:19.390Z,13.29
2017-08-21T01:29:19.424Z,13.36
2017-08-21T01:30:19.128Z,13.31
2017-08-21T01:31:19.183Z,13.35
2017-08-21T01:32:19.165Z,13.42
2017-08-21T01:33:19.521Z,13.28
2017-08-21T01:34:19.564Z,13.44
2017-08-21T01:35:19.289Z,13.53
2017-08-21T01:36:19.968Z,13.51
2017-08-21T01:37:20.303Z,13.63
2017-08-21T01:38:20.635Z,13.58
2017-08-21T01:39:20.679Z,13.63
2017-08-21T01:40:20.701Z,13.7
2017-08-21T01:41:20.439Z,13.76
2017-08-21T01:42:20.757Z,13.79
2017-08-21T01:43:20.797Z,13.81
2017-08-21T01:44:20.217Z,13.83
2017-08-21T01:45:20.889Z,13.91
2017-08-21T01:46:20.906Z,13.88
2017-08-21T01:47:20.954Z,13.9
2017-08-21T01:48:20.975Z,13.91
2017-08-21T01:49:20.690Z,13.94
2017-08-21T01:50:20.427Z,13.88
2017-08-21T01:51:21.114Z,13.95
2017-08-21T01:52:21.131Z,13.88
2017-08-21T01:53:20.870Z,13.9
2017-08-21T01:54:20.552Z,13.84
2017-08-21T01:55:20.888Z,13.76
2017-08-21T01:56:21.281Z,13.69
2017-08-21T01:57:21.295Z,13.73
2017-08-21T01:58:21.328Z,13.62
2017-08-21T01:59:21.364Z,13.62
2017-08-21T02:00:21.383Z,13.6
2017-08-21T02:01:22.039Z,13.65
2017-08-21T02:02:22.072Z,13.7
2017-08-21T02:03:22.126Z,13.66
2017-08-21T02:04:22.146Z,13.63
2017-08-21T02:05:22.155Z,13.65
2017-08-21T02:06:22.193Z,13.65
2017-08-21T02:07:22.225Z,13.62
2017-08-21T02:08:22.263Z,13.63
2017-08-21T02:09:22.333Z,13.63
2017-08-21T02:10:22.332Z,13.58
2017-08-21T02:11:22.361Z,13.57
2017-08-21T02:12:22.071Z,13.65
2017-08-21T02:13:22.731Z,13.65
2017-08-21T02:14:22.773Z,13.62
2017-08-21T02:15:22.816Z,13.55
2017-08-21T02:16:22.824Z,13.6
2017-08-21T02:17:22.570Z,13.5
2017-08-21T02:18:22.605Z,13.47
2017-08-21T02:19:23.260Z,13.53
2017-08-21T02:20:23.300Z,13.44
2017-08-21T02:21:23.039Z,13.44
2017-08-21T02:22:23.359Z,13.35
2017-08-21T02:23:23.378Z,13.32
2017-08-21T02:24:23.727Z,13.27
2017-08-21T02:25:23.776Z,13.2
2017-08-21T02:26:23.801Z,13.27
2017-08-21T02:27:24.488Z,13.25
2017-08-21T02:28:24.507Z,13.21
2017-08-21T02:29:24.572Z,13.25
2017-08-21T02:30:25.102Z,13.29
2017-08-21T02:31:24.302Z,13.24
2017-08-21T02:32:24.975Z,13.28
2017-08-21T02:33:24.982Z,13.2
2017-08-21T02:34:25.016Z,13.24
2017-08-21T02:35:24.711Z,13.21
2017-08-21T02:36:24.775Z,13.19
2017-08-21T02:37:24.818Z,13.24
2017-08-21T02:38:25.131Z,13.24
2017-08-21T02:39:25.206Z,13.36
2017-08-21T02:40:25.182Z,13.2
2017-08-21T02:41:25.235Z,13.35
2017-08-21T02:42:25.639Z,13.28
2017-08-21T02:43:25.651Z,13.31
2017-08-21T02:44:25.664Z,13.36
2017-08-21T02:45:25.365Z,13.31
2017-08-21T02:46:25.725Z,13.44
2017-08-21T02:47:25.753Z,13.47
2017-08-21T02:48:25.489Z,13.5
2017-08-21T02:49:25.504Z,13.53
2017-08-21T02:50:25.863Z,13.51
2017-08-21T02:51:25.900Z,13.5
2017-08-21T02:52:25.915Z,13.53
2017-08-21T02:53:25.952Z,13.55
2017-08-21T02:54:25.978Z,13.54
2017-08-21T02:55:26.051Z,13.65
2017-08-21T02:56:26.051Z,13.51
2017-08-21T02:57:26.072Z,13.68
2017-08-21T02:58:25.812Z,13.65
2017-08-21T02:59:26.462Z,13.54
2017-08-21T03:00:26.493Z,13.65
2017-08-21T03:01:26.552Z,13.66
2017-08-21T03:02:26.549Z,13.6
2017-08-21T03:03:26.603Z,13.55
2017-08-21T03:04:26.620Z,13.6
2017-08-21T03:05:26.338Z,13.66
2017-08-21T03:06:26.381Z,13.62
2017-08-21T03:07:27.030Z,13.65
2017-08-21T03:08:27.060Z,13.55
2017-08-21T03:09:27.072Z,13.53
2017-08-21T03:10:27.141Z,13.47
2017-08-21T03:11:26.504Z,13.47
2017-08-21T03:12:27.459Z,13.45
2017-08-21T03:13:27.515Z,13.31
2017-08-21T03:14:27.533Z,13.37
2017-08-21T03:15:27.569Z,13.36
2017-08-21T03:16:27.602Z,13.29
2017-08-21T03:17:27.325Z,13.2
2017-08-21T03:18:27.671Z,13.24
2017-08-21T03:19:27.688Z,13.17
2017-08-21T03:20:27.737Z,13.21
2017-08-21T03:21:27.769Z,13.1
2017-08-21T03:22:27.771Z,13.01
2017-08-21T03:23:27.821Z,13.09
2017-08-21T03:24:27.539Z,12.99
2017-08-21T03:25:28.147Z,13.13
2017-08-21T03:26:28.189Z,12.99
2017-08-21T03:27:27.888Z,13.03
2017-08-21T03:28:28.561Z,13.07
2017-08-21T03:29:28.263Z,13.03
2017-08-21T03:30:28.624Z,13.03
2017-08-21T03:31:28.664Z,13.02
2017-08-21T03:32:28.380Z,12.98
2017-08-21T03:33:29.019Z,12.96
2017-08-21T03:34:29.043Z,12.98
2017-08-21T03:35:29.069Z,12.96
2017-08-21T03:36:28.764Z,12.83
2017-08-21T03:37:28.837Z,12.86
2017-08-21T03:38:29.533Z,12.81
2017-08-21T03:39:29.515Z,12.92
2017-08-21T03:40:29.542Z,12.86
2017-08-21T03:41:29.576Z,12.81
2017-08-21T03:42:29.612Z,12.81
2017-08-21T03:43:29.657Z,12.86
2017-08-21T03:44:29.664Z,12.89
2017-08-21T03:45:29.726Z,12.86
2017-08-21T03:46:29.730Z,12.84
2017-08-21T03:47:29.440Z,12.86
2017-08-21T03:48:30.070Z,12.84
2017-08-21T03:49:30.122Z,12.84
2017-08-21T03:50:30.141Z,12.86
2017-08-21T03:51:30.160Z,12.86
2017-08-21T03:52:30.205Z,12.84
2017-08-21T03:53:30.236Z,12.86
2017-08-21T03:54:29.968Z,12.81
2017-08-21T03:55:30.312Z,12.86
2017-08-21T03:56:30.344Z,12.81
2017-08-21T03:57:30.366Z,12.88
2017-08-21T03:58:30.089Z,12.76
2017-08-21T03:59:30.413Z,12.78
2017-08-21T04:00:30.523Z,12.69
2017-08-21T04:01:30.624Z,12.7
2017-08-21T04:02:30.585Z,12.63
2017-08-21T04:03:31.066Z,12.63
2017-08-21T04:04:30.778Z,12.63
2017-08-21T04:05:31.575Z,12.66
2017-08-21T04:06:31.622Z,12.65
2017-08-21T04:07:31.474Z,12.76
2017-08-21T04:08:32.573Z,12.66
2017-08-21T04:09:32.716Z,12.71
2017-08-21T04:10:33.073Z,12.76
2017-08-21T04:11:32.761Z,12.76
2017-08-21T04:12:33.561Z,12.84
2017-08-21T04:13:33.612Z,12.83
2017-08-21T04:14:33.635Z,12.83
2017-08-21T04:15:33.776Z,12.81
2017-08-21T04:16:33.809Z,12.8
2017-08-21T04:17:34.661Z,12.86
2017-08-21T04:18:34.648Z,12.89
2017-08-21T04:19:35.137Z,12.86
2017-08-21T04:20:34.860Z,12.89
2017-08-21T04:21:35.666Z,12.86
2017-08-21T04:22:35.836Z,12.99
2017-08-21T04:23:35.862Z,12.98
2017-08-21T04:24:36.318Z,12.81
2017-08-21T04:25:36.353Z,12.98
2017-08-21T04:26:37.129Z,13.11
2017-08-21T04:27:37.165Z,13.09
2017-08-21T04:28:37.193Z,13.2
2017-08-21T04:29:37.240Z,13.13
2017-08-21T04:30:37.262Z,13.19
2017-08-21T04:31:37.300Z,13.24
2017-08-21T04:32:37.012Z,13.35
2017-08-21T04:33:37.479Z,13.36
2017-08-21T04:34:37.642Z,13.25
2017-08-21T04:35:38.112Z,13.31
2017-08-21T04:36:38.919Z,13.36
2017-08-21T04:37:38.966Z,13.39
2017-08-21T04:38:38.657Z,13.48
2017-08-21T04:39:39.133Z,13.42
2017-08-21T04:40:38.857Z,13.5
2017-08-21T04:41:39.663Z,13.53
2017-08-21T04:42:39.822Z,13.66
2017-08-21T04:43:40.315Z,13.53
2017-08-21T04:44:40.025Z,13.6
2017-08-21T04:45:40.047Z,13.62
2017-08-21T04:46:40.411Z,13.63
2017-08-21T04:47:40.117Z,13.54
2017-08-21T04:48:40.474Z,13.54
2017-08-21T04:49:40.515Z,13.55
2017-08-21T04:50:40.560Z,13.66
2017-08-21T04:51:40.575Z,13.65
2017-08-21T04:52:40.595Z,13.66
2017-08-21T04:53:40.428Z,13.6
2017-08-21T04:54:40.774Z,13.58
2017-08-21T04:55:40.933Z,13.69
2017-08-21T04:56:41.306Z,13.65
2017-08-21T04:57:41.779Z,13.7
2017-08-21T04:58:41.821Z,13.72
2017-08-21T04:59:41.852Z,13.76
2017-08-21T05:00:41.884Z,13.7
2017-08-21T05:01:41.916Z,13.84
2017-08-21T05:02:41.951Z,13.94
2017-08-21T05:03:41.976Z,13.97
2017-08-21T05:04:42.014Z,14.02
2017-08-21T05:05:42.517Z,14.09
2017-08-21T05:06:42.205Z,14.13
2017-08-21T05:07:42.560Z,14.23
2017-08-21T05:08:42.583Z,14.24
2017-08-21T05:09:42.633Z,14.33
2017-08-21T05:10:42.668Z,14.33
2017-08-21T05:11:42.691Z,14.39
2017-08-21T05:12:42.082Z,14.45
2017-08-21T05:13:43.192Z,14.48
2017-08-21T05:14:43.504Z,14.48
2017-08-21T05:15:42.929Z,14.6
2017-08-21T05:16:43.725Z,14.64
2017-08-21T05:17:43.753Z,14.67
2017-08-21T05:18:43.793Z,14.75
2017-08-21T05:19:43.830Z,14.71
2017-08-21T05:20:43.580Z,14.74
2017-08-21T05:21:44.379Z,14.86
2017-08-21T05:22:44.457Z,14.79
2017-08-21T05:23:44.441Z,14.82
2017-08-21T05:24:44.175Z,14.89
2017-08-21T05:25:44.505Z,14.93
2017-08-21T05:26:44.533Z,14.94
2017-08-21T05:27:44.566Z,15.04
2017-08-21T05:28:44.298Z,15.08
2017-08-21T05:29:44.655Z,15.07
2017-08-21T05:30:44.676Z,15.2
2017-08-21T05:31:44.998Z,15.37
2017-08-21T05:32:44.732Z,15.44
2017-08-21T05:33:44.773Z,15.51
2017-08-21T05:34:44.465Z,15.49
2017-08-21T05:35:44.800Z,15.37
2017-08-21T05:36:44.864Z,15.31
2017-08-21T05:37:44.920Z,15.31
2017-08-21T05:38:44.941Z,15.43
2017-08-21T05:39:44.656Z,15.47
2017-08-21T05:40:44.692Z,15.47
2017-08-21T05:41:45.037Z,15.47
2017-08-21T05:42:45.063Z,15.55
2017-08-21T05:43:45.106Z,15.58
2017-08-21T05:44:44.820Z,15.74
2017-08-21T05:45:46.226Z,15.74
2017-08-21T05:46:45.915Z,15.77
2017-08-21T05:47:46.262Z,15.78
2017-08-21T05:48:46.283Z,15.83
2017-08-21T05:49:46.275Z,15.84
2017-08-21T05:50:45.752Z,16.06
2017-08-21T05:51:46.700Z,16.11
2017-08-21T05:52:46.267Z,16.18
2017-08-21T05:53:46.480Z,16.14
2017-08-21T05:54:46.411Z,16.22
2017-08-21T05:55:46.386Z,16.16
2017-08-21T05:56:46.422Z,16.22
2017-08-21T05:57:46.613Z,16.16
2017-08-21T05:58:46.665Z,16.17
2017-08-21T05:59:46.668Z,16.21
2017-08-21T06:00:46.343Z,16.08
2017-08-21T06:01:47.219Z,15.99
2017-08-21T06:02:46.624Z,15.98
2017-08-21T06:03:46.989Z,15.88
2017-08-21T06:04:46.354Z,15.92
2017-08-21T06:05:46.925Z,15.89
2017-08-21T06:06:47.166Z,15.86
2017-08-21T06:07:46.960Z,15.89
2017-08-21T06:08:46.362Z,15.92
2017-08-21T06:09:47.159Z,15.8
2017-08-21T06:10:46.909Z,15.78
2017-08-21T06:11:47.026Z,15.77
2017-08-21T06:12:46.982Z,15.77
2017-08-21T06:13:47.103Z,15.8
2017-08-21T06:14:47.037Z,15.68
2017-08-21T06:15:47.615Z,15.86
